Ranburne, AL

7:51 AM CDT on August 01, 2015 (GMT -0500)
APRSWXNET | | Change Station
CLOSE
Current Station
Personal Weather Station
Location: Heflin, AL
Elevation: 1040 ft
Nearby Weather Stations

Elev 1040 ft 33.65 °N, 85.58 °W | Updated 25 minutes ago

Partly Cloudy
Partly Cloudy
71 °F
Feels Like 72 °F
N
0
Wind Variable Wind from SSW
Gusts 2.0 mph

Today
High -- | Low -- °F
--% Chance of Precip.
Yesterday
High -- | Low -- °F
Precip. -- in
5:53 AM 7:41 PM
Full, 98% visible
Pressure 30.03 in
Visibility 10.0 miles
Clouds Mostly Cloudy 3700 ft
Overcast 7500 ft
Heat Index 72 °F
Dew Point 63 °F
Humidity 77%
Rainfall in
Snow Depth Not available.
UV 0 out of 12
Pollen 5.40 out of 12
Air Quality Not available.
Flu Activity Not available.
METAR KCTJ 011235Z AUTO 01004KT 10SM BKN037 OVC075 24/17 A3003 RMK AO2 T02350166

More Conditions Fewer Conditions

Pressure 30.03 in
Visibility 10.0 miles
Clouds Mostly Cloudy 3700 ft
Overcast 7500 ft
Heat Index 72 °F
Dew Point 63 °F
Humidity 77%
Rainfall in
Snow Depth Not available.
UV 0 out of 12
Pollen 5.40 out of 12
Air Quality Not available.
Flu Activity Not available.
METAR KCTJ 011235Z AUTO 01004KT 10SM BKN037 OVC075 24/17 A3003 RMK AO2 T02350166

More Conditions Fewer Conditions

10-Day Weather Forecast

×

Almanac

Astronomy

Aug. 01, 2015 Rise Set
Actual Time
Civil Twilight
Nautical Twilight
Astronomical Twilight
Moon
Length of Visible Light
Length of Day
Tomorrow will be .
, % of the Moon is Illuminated

Today's Extremes

State Highs State Lows

Community

WunderPhotos

Upload Photos

1,842,932 photos uploaded!

WunderBlogs® & News

Nearby

Air Quality

  Air Quality AQ Index Pollutant
Not available.

Snow Depth

Station Depth Elevation

Earthquake Activity

City Distance Mag. Time & Date
Minimum magnitude displayed is 2.5.

Coastal Water Temperatures

Place Temperature

Stations

Nearby Weather Stations

Station Location Temp. Windchill Dew Point Humidity Wind Precip. Elev Updated Type